KACB

Antrim County Airport

Bellaire, Michigan, USA
METAR KACB 171156Z AUTO 32009G17KT 10SM OVC027 01/M05 A3003 RMK AO2 T00051053 10043 20005
Observed Flight Rules
Dec-17 @ 11:56 UTC (33 minutes ago) Marginal Visual Flight Rules
Wind Visibility Clouds
320° at 9 knots
 Gusting to 17 knots
10 miles
  • Overcast at 2,700' AGL
Temperatures Readings
Current 1°C / 34°F
Dewpoint -5°C / 23°F
Humidity 65%
Altimeter 30.03" Hg
Pressure 1017 hPa
Elevation 190
METAR KACB 171156Z AUTO 32009G17KT 10SM OVC027 01/M05 A3003 RMK AO2 T00051053 10043 20005
Observed Flight Rules
Dec-17 @ 11:56 UTC
(33 minutes ago)
MVFR
Wind Visibility
320° at 9 knots
 Gusting to 17 knots
10 miles
Clouds
  • Overcast at 2,700' AGL
Temperature Dewpoint
1°C / 34°F -5°C / 23°F
Humidity Altimeter Pressure
65% 30.03" Hg 1017 hPa